sensor_id;sensor_type;location;lat;lon;timestamp;temperature;humidity
29203;DHT22;16245;51.170;4.884;2022-10-31T00:00:59;14.10;99.90
29203;DHT22;16245;51.170;4.884;2022-10-31T00:03:25;14.10;99.90
29203;DHT22;16245;51.170;4.884;2022-10-31T00:05:52;14.10;99.90
29203;DHT22;16245;51.170;4.884;2022-10-31T00:08:18;14.00;99.90
29203;DHT22;16245;51.170;4.884;2022-10-31T00:10:45;14.00;99.90
29203;DHT22;16245;51.170;4.884;2022-10-31T00:13:12;14.00;99.90
29203;DHT22;16245;51.170;4.884;2022-10-31T00:15:39;13.90;99.90
29203;DHT22;16245;51.170;4.884;2022-10-31T00:18:06;13.90;99.90
29203;DHT22;16245;51.170;4.884;2022-10-31T00:20:33;14.00;99.90
29203;DHT22;16245;51.170;4.884;2022-10-31T00:23:00;13.90;99.90
29203;DHT22;16245;51.170;4.884;2022-10-31T00:25:27;13.90;99.90
29203;DHT22;16245;51.170;4.884;2022-10-31T00:27:53;13.90;99.90
29203;DHT22;16245;51.170;4.884;2022-10-31T00:30:19;13.90;99.90
29203;DHT22;16245;51.170;4.884;2022-10-31T00:32:44;14.00;99.90
29203;DHT22;16245;51.170;4.884;2022-10-31T00:35:10;13.90;99.90
29203;DHT22;16245;51.170;4.884;2022-10-31T00:37:36;13.90;99.90
29203;DHT22;16245;51.170;4.884;2022-10-31T00:40:01;13.90;99.90
29203;DHT22;16245;51.170;4.884;2022-10-31T00:42:27;13.80;99.90
29203;DHT22;16245;51.170;4.884;2022-10-31T00:44:53;13.80;99.90
29203;DHT22;16245;51.170;4.884;2022-10-31T00:47:18;13.70;99.90
29203;DHT22;16245;51.170;4.884;2022-10-31T00:49:44;13.60;99.90
29203;DHT22;16245;51.170;4.884;2022-10-31T00:52:09;13.60;99.90
29203;DHT22;16245;51.170;4.884;2022-10-31T00:54:35;13.70;99.90
29203;DHT22;16245;51.170;4.884;2022-10-31T00:57:00;13.70;99.90
29203;DHT22;16245;51.170;4.884;2022-10-31T00:59:26;13.60;99.90
29203;DHT22;16245;51.170;4.884;2022-10-31T01:01:52;13.60;99.90
29203;DHT22;16245;51.170;4.884;2022-10-31T01:04:17;13.50;99.90
29203;DHT22;16245;51.170;4.884;2022-10-31T01:06:43;13.50;99.90
29203;DHT22;16245;51.170;4.884;2022-10-31T01:09:09;13.50;99.90
29203;DHT22;16245;51.170;4.884;2022-10-31T01:11:34;13.50;99.90
29203;DHT22;16245;51.170;4.884;2022-10-31T01:14:00;13.40;99.90
29203;DHT22;16245;51.170;4.884;2022-10-31T01:16:27;13.40;99.90
29203;DHT22;16245;51.170;4.884;2022-10-31T01:18:53;13.30;99.90
29203;DHT22;16245;51.170;4.884;2022-10-31T01:21:23;13.30;99.90
29203;DHT22;16245;51.170;4.884;2022-10-31T01:23:50;13.20;99.90
29203;DHT22;16245;51.170;4.884;2022-10-31T01:26:20;13.10;99.90
29203;DHT22;16245;51.170;4.884;2022-10-31T01:28:48;13.00;99.90
29203;DHT22;16245;51.170;4.884;2022-10-31T01:31:16;13.00;99.90
29203;DHT22;16245;51.170;4.884;2022-10-31T01:33:42;12.90;99.90
29203;DHT22;16245;51.170;4.884;2022-10-31T01:36:32;12.90;99.90
29203;DHT22;16245;51.170;4.884;2022-10-31T01:39:01;12.80;99.90
29203;DHT22;16245;51.170;4.884;2022-10-31T01:41:30;12.80;99.90
29203;DHT22;16245;51.170;4.884;2022-10-31T01:43:59;12.90;99.90
29203;DHT22;16245;51.170;4.884;2022-10-31T01:46:37;12.90;99.90
29203;DHT22;16245;51.170;4.884;2022-10-31T01:49:13;13.00;99.90
29203;DHT22;16245;51.170;4.884;2022-10-31T01:51:45;12.90;99.90
29203;DHT22;16245;51.170;4.884;2022-10-31T01:54:16;12.80;99.90
29203;DHT22;16245;51.170;4.884;2022-10-31T01:56:47;12.70;99.90
29203;DHT22;16245;51.170;4.884;2022-10-31T01:59:16;12.60;99.90
29203;DHT22;16245;51.170;4.884;2022-10-31T02:01:43;12.50;99.90
29203;DHT22;16245;51.170;4.884;2022-10-31T02:04:09;12.50;99.90
29203;DHT22;16245;51.170;4.884;2022-10-31T02:06:43;12.40;99.90
29203;DHT22;16245;51.170;4.884;2022-10-31T02:09:10;12.50;99.90
29203;DHT22;16245;51.170;4.884;2022-10-31T02:11:38;12.60;99.90
29203;DHT22;16245;51.170;4.884;2022-10-31T02:14:03;12.70;99.90
29203;DHT22;16245;51.170;4.884;2022-10-31T02:16:29;12.70;99.90
29203;DHT22;16245;51.170;4.884;2022-10-31T02:18:55;12.60;99.90
29203;DHT22;16245;51.170;4.884;2022-10-31T02:21:49;12.60;99.90
29203;DHT22;16245;51.170;4.884;2022-10-31T02:27:34;12.50;99.90
29203;DHT22;16245;51.170;4.884;2022-10-31T02:30:12;12.40;99.90
29203;DHT22;16245;51.170;4.884;2022-10-31T02:33:15;12.40;99.90
29203;DHT22;16245;51.170;4.884;2022-10-31T02:35:52;12.40;99.90
29203;DHT22;16245;51.170;4.884;2022-10-31T02:41:06;12.30;99.90
29203;DHT22;16245;51.170;4.884;2022-10-31T02:46:38;12.20;99.90
29203;DHT22;16245;51.170;4.884;2022-10-31T02:49:23;12.20;99.90
29203;DHT22;16245;51.170;4.884;2022-10-31T02:51:50;12.10;99.90
29203;DHT22;16245;51.170;4.884;2022-10-31T02:54:24;12.10;99.90
29203;DHT22;16245;51.170;4.884;2022-10-31T02:56:53;12.00;99.90
29203;DHT22;16245;51.170;4.884;2022-10-31T02:59:20;12.00;99.90
29203;DHT22;16245;51.170;4.884;2022-10-31T03:12:28;11.80;99.90
29203;DHT22;16245;51.170;4.884;2022-10-31T03:17:37;11.80;99.90
29203;DHT22;16245;51.170;4.884;2022-10-31T03:20:09;11.80;99.90
29203;DHT22;16245;51.170;4.884;2022-10-31T03:22:37;11.80;99.90
29203;DHT22;16245;51.170;4.884;2022-10-31T03:25:05;11.80;99.90
29203;DHT22;16245;51.170;4.884;2022-10-31T03:27:34;11.90;99.90
29203;DHT22;16245;51.170;4.884;2022-10-31T03:30:04;11.80;99.90
29203;DHT22;16245;51.170;4.884;2022-10-31T03:33:03;11.90;99.90
29203;DHT22;16245;51.170;4.884;2022-10-31T03:35:30;11.90;99.90
29203;DHT22;16245;51.170;4.884;2022-10-31T03:37:59;11.80;99.90
29203;DHT22;16245;51.170;4.884;2022-10-31T03:40:26;11.80;99.90
29203;DHT22;16245;51.170;4.884;2022-10-31T03:42:58;11.70;99.90
29203;DHT22;16245;51.170;4.884;2022-10-31T03:45:27;11.70;99.90
29203;DHT22;16245;51.170;4.884;2022-10-31T03:47:54;11.70;99.90
29203;DHT22;16245;51.170;4.884;2022-10-31T03:50:21;11.70;99.90
29203;DHT22;16245;51.170;4.884;2022-10-31T03:52:56;11.60;99.90
29203;DHT22;16245;51.170;4.884;2022-10-31T03:55:28;11.70;99.90
29203;DHT22;16245;51.170;4.884;2022-10-31T03:58:02;11.70;99.90
29203;DHT22;16245;51.170;4.884;2022-10-31T04:00:30;11.70;99.90
29203;DHT22;16245;51.170;4.884;2022-10-31T04:03:19;11.70;99.90
29203;DHT22;16245;51.170;4.884;2022-10-31T04:05:48;11.60;99.90
29203;DHT22;16245;51.170;4.884;2022-10-31T04:08:21;11.60;99.90
29203;DHT22;16245;51.170;4.884;2022-10-31T04:10:49;11.60;99.90
29203;DHT22;16245;51.170;4.884;2022-10-31T04:13:19;11.60;99.90
29203;DHT22;16245;51.170;4.884;2022-10-31T04:15:46;11.50;99.90
29203;DHT22;16245;51.170;4.884;2022-10-31T04:18:13;11.60;99.90
29203;DHT22;16245;51.170;4.884;2022-10-31T04:20:40;11.60;99.90
29203;DHT22;16245;51.170;4.884;2022-10-31T04:23:17;11.70;99.90
29203;DHT22;16245;51.170;4.884;2022-10-31T04:25:43;11.70;99.90
29203;DHT22;16245;51.170;4.884;2022-10-31T04:28:09;11.70;99.90
29203;DHT22;16245;51.170;4.884;2022-10-31T04:30:34;11.60;99.90
29203;DHT22;16245;51.170;4.884;2022-10-31T04:33:00;11.60;99.90
29203;DHT22;16245;51.170;4.884;2022-10-31T04:35:26;11.60;99.90
29203;DHT22;16245;51.170;4.884;2022-10-31T04:37:51;11.70;99.90
29203;DHT22;16245;51.170;4.884;2022-10-31T04:40:17;11.60;99.90
29203;DHT22;16245;51.170;4.884;2022-10-31T04:42:43;11.60;99.90
29203;DHT22;16245;51.170;4.884;2022-10-31T04:45:08;11.50;99.90
29203;DHT22;16245;51.170;4.884;2022-10-31T04:47:34;11.60;99.90
29203;DHT22;16245;51.170;4.884;2022-10-31T04:50:00;11.50;99.90
29203;DHT22;16245;51.170;4.884;2022-10-31T04:52:26;11.50;99.90
29203;DHT22;16245;51.170;4.884;2022-10-31T04:54:52;11.50;99.90
29203;DHT22;16245;51.170;4.884;2022-10-31T04:57:17;11.50;99.90
29203;DHT22;16245;51.170;4.884;2022-10-31T04:59:43;11.60;99.90
29203;DHT22;16245;51.170;4.884;2022-10-31T05:02:08;11.50;99.90
29203;DHT22;16245;51.170;4.884;2022-10-31T05:04:34;11.50;99.90
29203;DHT22;16245;51.170;4.884;2022-10-31T05:07:00;11.40;99.90
29203;DHT22;16245;51.170;4.884;2022-10-31T05:09:25;11.40;99.90
29203;DHT22;16245;51.170;4.884;2022-10-31T05:11:51;11.40;99.90
29203;DHT22;16245;51.170;4.884;2022-10-31T05:14:16;11.50;99.90
29203;DHT22;16245;51.170;4.884;2022-10-31T05:16:42;11.50;99.90
29203;DHT22;16245;51.170;4.884;2022-10-31T05:19:08;11.50;99.90
29203;DHT22;16245;51.170;4.884;2022-10-31T05:21:33;11.50;99.90
29203;DHT22;16245;51.170;4.884;2022-10-31T05:23:59;11.50;99.90
29203;DHT22;16245;51.170;4.884;2022-10-31T05:26:25;11.50;99.90
29203;DHT22;16245;51.170;4.884;2022-10-31T05:28:50;11.50;99.90
29203;DHT22;16245;51.170;4.884;2022-10-31T05:31:16;11.50;99.90
29203;DHT22;16245;51.170;4.884;2022-10-31T05:33:41;11.50;99.90
29203;DHT22;16245;51.170;4.884;2022-10-31T05:36:07;11.50;99.90
29203;DHT22;16245;51.170;4.884;2022-10-31T05:38:33;11.50;99.90
29203;DHT22;16245;51.170;4.884;2022-10-31T05:40:58;11.50;99.90
29203;DHT22;16245;51.170;4.884;2022-10-31T05:43:27;11.50;99.90
29203;DHT22;16245;51.170;4.884;2022-10-31T05:45:55;11.50;99.90
29203;DHT22;16245;51.170;4.884;2022-10-31T05:48:21;11.50;99.90
29203;DHT22;16245;51.170;4.884;2022-10-31T05:50:48;11.50;99.90
29203;DHT22;16245;51.170;4.884;2022-10-31T05:53:14;11.50;99.90
29203;DHT22;16245;51.170;4.884;2022-10-31T05:55:41;11.60;99.90
29203;DHT22;16245;51.170;4.884;2022-10-31T05:58:07;11.60;99.90
29203;DHT22;16245;51.170;4.884;2022-10-31T06:00:33;11.60;99.90
29203;DHT22;16245;51.170;4.884;2022-10-31T06:03:05;11.60;99.90
29203;DHT22;16245;51.170;4.884;2022-10-31T06:05:32;11.60;99.90
29203;DHT22;16245;51.170;4.884;2022-10-31T06:07:58;11.60;99.90
29203;DHT22;16245;51.170;4.884;2022-10-31T06:10:24;11.60;99.90
29203;DHT22;16245;51.170;4.884;2022-10-31T06:12:49;11.70;99.90
29203;DHT22;16245;51.170;4.884;2022-10-31T06:15:16;11.70;99.90
29203;DHT22;16245;51.170;4.884;2022-10-31T06:17:42;11.70;99.90
29203;DHT22;16245;51.170;4.884;2022-10-31T06:20:08;11.70;99.90
29203;DHT22;16245;51.170;4.884;2022-10-31T06:22:34;11.70;99.90
29203;DHT22;16245;51.170;4.884;2022-10-31T06:24:59;11.60;99.90
29203;DHT22;16245;51.170;4.884;2022-10-31T06:27:25;11.60;99.90
29203;DHT22;16245;51.170;4.884;2022-10-31T06:29:51;11.70;99.90
29203;DHT22;16245;51.170;4.884;2022-10-31T06:32:17;11.70;99.90
29203;DHT22;16245;51.170;4.884;2022-10-31T06:34:43;11.60;99.90
29203;DHT22;16245;51.170;4.884;2022-10-31T06:37:12;11.60;99.90
29203;DHT22;16245;51.170;4.884;2022-10-31T06:39:38;11.60;99.90
29203;DHT22;16245;51.170;4.884;2022-10-31T06:42:03;11.60;99.90
29203;DHT22;16245;51.170;4.884;2022-10-31T06:44:30;11.70;99.90
29203;DHT22;16245;51.170;4.884;2022-10-31T06:46:55;11.60;99.90
29203;DHT22;16245;51.170;4.884;2022-10-31T06:49:21;11.70;99.90
29203;DHT22;16245;51.170;4.884;2022-10-31T06:51:47;11.70;99.90
29203;DHT22;16245;51.170;4.884;2022-10-31T06:54:13;11.80;99.90
29203;DHT22;16245;51.170;4.884;2022-10-31T06:56:39;12.00;99.90
29203;DHT22;16245;51.170;4.884;2022-10-31T06:59:04;12.00;99.90
29203;DHT22;16245;51.170;4.884;2022-10-31T07:01:30;12.00;99.90
29203;DHT22;16245;51.170;4.884;2022-10-31T07:03:56;12.00;99.90
29203;DHT22;16245;51.170;4.884;2022-10-31T07:06:21;12.00;99.90
29203;DHT22;16245;51.170;4.884;2022-10-31T07:08:47;12.00;99.90
29203;DHT22;16245;51.170;4.884;2022-10-31T07:11:12;12.00;99.90
29203;DHT22;16245;51.170;4.884;2022-10-31T07:13:38;12.10;99.90
29203;DHT22;16245;51.170;4.884;2022-10-31T07:16:05;12.10;99.90
29203;DHT22;16245;51.170;4.884;2022-10-31T07:18:32;12.10;99.90
29203;DHT22;16245;51.170;4.884;2022-10-31T07:20:58;12.20;99.90
29203;DHT22;16245;51.170;4.884;2022-10-31T07:23:24;12.30;99.90
29203;DHT22;16245;51.170;4.884;2022-10-31T07:25:55;12.50;99.90
29203;DHT22;16245;51.170;4.884;2022-10-31T07:28:21;12.60;99.90
29203;DHT22;16245;51.170;4.884;2022-10-31T07:30:53;12.70;99.90
29203;DHT22;16245;51.170;4.884;2022-10-31T07:33:19;12.80;99.90
29203;DHT22;16245;51.170;4.884;2022-10-31T07:35:45;12.80;99.90
29203;DHT22;16245;51.170;4.884;2022-10-31T07:38:12;12.80;99.90
29203;DHT22;16245;51.170;4.884;2022-10-31T07:40:39;12.80;99.90
29203;DHT22;16245;51.170;4.884;2022-10-31T07:43:04;12.80;99.90
29203;DHT22;16245;51.170;4.884;2022-10-31T07:45:30;12.90;99.90
29203;DHT22;16245;51.170;4.884;2022-10-31T07:47:56;12.90;99.90
29203;DHT22;16245;51.170;4.884;2022-10-31T07:50:24;13.00;99.90
29203;DHT22;16245;51.170;4.884;2022-10-31T07:53:06;13.00;99.90
29203;DHT22;16245;51.170;4.884;2022-10-31T07:55:33;13.10;99.90
29203;DHT22;16245;51.170;4.884;2022-10-31T07:58:00;13.10;99.90
29203;DHT22;16245;51.170;4.884;2022-10-31T08:00:26;13.20;99.90
29203;DHT22;16245;51.170;4.884;2022-10-31T08:03:17;13.20;99.90
29203;DHT22;16245;51.170;4.884;2022-10-31T08:05:43;13.30;99.90
29203;DHT22;16245;51.170;4.884;2022-10-31T08:08:11;13.30;99.90
29203;DHT22;16245;51.170;4.884;2022-10-31T08:10:38;13.40;99.90
29203;DHT22;16245;51.170;4.884;2022-10-31T08:13:10;13.50;99.90
29203;DHT22;16245;51.170;4.884;2022-10-31T08:15:36;13.70;99.90
29203;DHT22;16245;51.170;4.884;2022-10-31T08:18:06;13.90;99.90
29203;DHT22;16245;51.170;4.884;2022-10-31T08:20:32;14.00;99.90
29203;DHT22;16245;51.170;4.884;2022-10-31T08:23:02;14.10;99.90
29203;DHT22;16245;51.170;4.884;2022-10-31T08:25:30;14.20;99.90
29203;DHT22;16245;51.170;4.884;2022-10-31T08:27:56;14.30;99.90
29203;DHT22;16245;51.170;4.884;2022-10-31T08:30:25;14.30;99.90
29203;DHT22;16245;51.170;4.884;2022-10-31T08:33:20;14.40;99.90
29203;DHT22;16245;51.170;4.884;2022-10-31T08:35:45;14.50;99.90
29203;DHT22;16245;51.170;4.884;2022-10-31T08:38:12;14.60;99.90
29203;DHT22;16245;51.170;4.884;2022-10-31T08:40:39;14.70;99.90
29203;DHT22;16245;51.170;4.884;2022-10-31T08:43:12;14.90;99.90
29203;DHT22;16245;51.170;4.884;2022-10-31T08:45:38;15.10;99.90
29203;DHT22;16245;51.170;4.884;2022-10-31T08:48:09;15.10;99.90
29203;DHT22;16245;51.170;4.884;2022-10-31T08:50:36;15.20;99.90
29203;DHT22;16245;51.170;4.884;2022-10-31T08:53:18;15.20;99.90
29203;DHT22;16245;51.170;4.884;2022-10-31T08:55:45;15.30;99.90
29203;DHT22;16245;51.170;4.884;2022-10-31T08:58:21;15.40;99.90
29203;DHT22;16245;51.170;4.884;2022-10-31T09:00:52;15.40;99.90
29203;DHT22;16245;51.170;4.884;2022-10-31T09:03:20;15.50;99.90
29203;DHT22;16245;51.170;4.884;2022-10-31T09:05:46;15.50;99.90
29203;DHT22;16245;51.170;4.884;2022-10-31T09:08:12;15.50;99.90
29203;DHT22;16245;51.170;4.884;2022-10-31T09:10:39;15.40;99.90
29203;DHT22;16245;51.170;4.884;2022-10-31T09:13:10;15.40;99.90
29203;DHT22;16245;51.170;4.884;2022-10-31T09:15:38;15.40;99.90
29203;DHT22;16245;51.170;4.884;2022-10-31T09:18:08;15.40;99.90
29203;DHT22;16245;51.170;4.884;2022-10-31T09:20:35;15.40;99.90
29203;DHT22;16245;51.170;4.884;2022-10-31T09:23:13;15.50;99.90
29203;DHT22;16245;51.170;4.884;2022-10-31T09:25:40;15.50;99.90
29203;DHT22;16245;51.170;4.884;2022-10-31T09:28:07;15.50;99.90
29203;DHT22;16245;51.170;4.884;2022-10-31T09:30:34;15.60;99.90
29203;DHT22;16245;51.170;4.884;2022-10-31T09:33:03;15.60;99.90
29203;DHT22;16245;51.170;4.884;2022-10-31T09:35:29;15.50;99.90
29203;DHT22;16245;51.170;4.884;2022-10-31T09:38:03;15.50;99.90
29203;DHT22;16245;51.170;4.884;2022-10-31T09:45:39;15.50;99.90
29203;DHT22;16245;51.170;4.884;2022-10-31T09:50:43;15.70;99.90
29203;DHT22;16245;51.170;4.884;2022-10-31T09:53:22;15.80;99.90
29203;DHT22;16245;51.170;4.884;2022-10-31T09:55:49;15.70;99.90
29203;DHT22;16245;51.170;4.884;2022-10-31T09:58:19;15.80;99.90
29203;DHT22;16245;51.170;4.884;2022-10-31T10:00:47;15.80;99.90
29203;DHT22;16245;51.170;4.884;2022-10-31T10:03:46;15.90;99.90
29203;DHT22;16245;51.170;4.884;2022-10-31T10:06:19;16.10;99.90
29203;DHT22;16245;51.170;4.884;2022-10-31T10:08:46;16.30;99.90
29203;DHT22;16245;51.170;4.884;2022-10-31T10:11:40;16.40;99.90
29203;DHT22;16245;51.170;4.884;2022-10-31T10:27:49;17.00;99.90
29203;DHT22;16245;51.170;4.884;2022-10-31T10:30:22;17.00;99.90
29203;DHT22;16245;51.170;4.884;2022-10-31T10:32:52;17.20;99.90
29203;DHT22;16245;51.170;4.884;2022-10-31T10:37:49;18.40;99.90
29203;DHT22;16245;51.170;4.884;2022-10-31T10:40:19;18.70;99.90
29203;DHT22;16245;51.170;4.884;2022-10-31T10:45:49;18.50;99.90
29203;DHT22;16245;51.170;4.884;2022-10-31T10:51:19;18.00;99.90
29203;DHT22;16245;51.170;4.884;2022-10-31T10:56:37;17.60;99.90
29203;DHT22;16245;51.170;4.884;2022-10-31T10:59:09;17.50;99.90
29203;DHT22;16245;51.170;4.884;2022-10-31T11:01:36;17.60;99.90
29203;DHT22;16245;51.170;4.884;2022-10-31T11:04:02;17.70;99.90
29203;DHT22;16245;51.170;4.884;2022-10-31T11:06:28;17.90;99.90
29203;DHT22;16245;51.170;4.884;2022-10-31T11:08:53;18.20;99.90
29203;DHT22;16245;51.170;4.884;2022-10-31T11:11:24;18.40;99.90
29203;DHT22;16245;51.170;4.884;2022-10-31T11:14:03;18.60;99.90
29203;DHT22;16245;51.170;4.884;2022-10-31T11:16:32;18.80;99.90
29203;DHT22;16245;51.170;4.884;2022-10-31T11:19:07;18.80;99.90
29203;DHT22;16245;51.170;4.884;2022-10-31T11:21:34;18.80;99.90
29203;DHT22;16245;51.170;4.884;2022-10-31T11:26:34;19.00;99.90
29203;DHT22;16245;51.170;4.884;2022-10-31T11:29:01;19.20;99.90
29203;DHT22;16245;51.170;4.884;2022-10-31T11:31:31;19.30;99.90
29203;DHT22;16245;51.170;4.884;2022-10-31T11:34:04;18.90;99.90
29203;DHT22;16245;51.170;4.884;2022-10-31T11:36:33;19.00;99.90
29203;DHT22;16245;51.170;4.884;2022-10-31T11:39:03;18.50;99.90
29203;DHT22;16245;51.170;4.884;2022-10-31T11:41:33;18.60;99.90
29203;DHT22;16245;51.170;4.884;2022-10-31T11:44:03;18.80;99.90
29203;DHT22;16245;51.170;4.884;2022-10-31T11:46:38;19.10;99.90
29203;DHT22;16245;51.170;4.884;2022-10-31T11:49:11;19.20;99.90
29203;DHT22;16245;51.170;4.884;2022-10-31T11:51:38;19.40;99.90
29203;DHT22;16245;51.170;4.884;2022-10-31T11:54:05;19.60;99.90
29203;DHT22;16245;51.170;4.884;2022-10-31T11:56:41;19.40;99.90
29203;DHT22;16245;51.170;4.884;2022-10-31T11:59:30;19.50;99.90
29203;DHT22;16245;51.170;4.884;2022-10-31T12:01:58;19.90;99.90
29203;DHT22;16245;51.170;4.884;2022-10-31T12:06:58;20.40;99.90
29203;DHT22;16245;51.170;4.884;2022-10-31T12:09:29;20.40;99.90
29203;DHT22;16245;51.170;4.884;2022-10-31T12:12:21;20.30;99.90
29203;DHT22;16245;51.170;4.884;2022-10-31T12:20:16;19.60;99.90
29203;DHT22;16245;51.170;4.884;2022-10-31T12:36:33;19.10;99.90
29203;DHT22;16245;51.170;4.884;2022-10-31T12:42:07;18.90;99.90
29203;DHT22;16245;51.170;4.884;2022-10-31T13:00:46;19.60;99.90
29203;DHT22;16245;51.170;4.884;2022-10-31T13:03:29;19.90;99.90
29203;DHT22;16245;51.170;4.884;2022-10-31T13:06:03;20.20;99.90
29203;DHT22;16245;51.170;4.884;2022-10-31T13:08:48;20.30;99.90
29203;DHT22;16245;51.170;4.884;2022-10-31T13:16:48;20.50;99.90
29203;DHT22;16245;51.170;4.884;2022-10-31T13:19:34;20.30;99.90
29203;DHT22;16245;51.170;4.884;2022-10-31T13:22:16;20.30;99.90
29203;DHT22;16245;51.170;4.884;2022-10-31T13:24:52;20.30;99.90
29203;DHT22;16245;51.170;4.884;2022-10-31T13:27:28;20.20;99.90
29203;DHT22;16245;51.170;4.884;2022-10-31T13:30:14;20.20;99.90
29203;DHT22;16245;51.170;4.884;2022-10-31T13:32:48;20.30;99.90
29203;DHT22;16245;51.170;4.884;2022-10-31T13:38:22;20.40;99.90
29203;DHT22;16245;51.170;4.884;2022-10-31T13:40:54;20.10;99.90
29203;DHT22;16245;51.170;4.884;2022-10-31T13:44:18;20.30;99.90
29203;DHT22;16245;51.170;4.884;2022-10-31T13:46:35;20.20;99.90
29203;DHT22;16245;51.170;4.884;2022-10-31T13:49:01;20.10;99.90
29203;DHT22;16245;51.170;4.884;2022-10-31T13:51:29;20.00;99.90
29203;DHT22;16245;51.170;4.884;2022-10-31T13:53:57;20.00;99.90
29203;DHT22;16245;51.170;4.884;2022-10-31T13:56:31;19.80;99.90
29203;DHT22;16245;51.170;4.884;2022-10-31T14:01:23;19.70;99.90
29203;DHT22;16245;51.170;4.884;2022-10-31T14:04:05;19.70;99.90
29203;DHT22;16245;51.170;4.884;2022-10-31T14:09:28;19.90;99.90
29203;DHT22;16245;51.170;4.884;2022-10-31T14:11:55;19.90;99.90
29203;DHT22;16245;51.170;4.884;2022-10-31T14:14:23;19.90;99.90
29203;DHT22;16245;51.170;4.884;2022-10-31T14:16:56;20.00;99.90
29203;DHT22;16245;51.170;4.884;2022-10-31T14:19:23;20.00;99.90
29203;DHT22;16245;51.170;4.884;2022-10-31T14:21:50;20.00;99.90
29203;DHT22;16245;51.170;4.884;2022-10-31T14:29:46;19.60;99.90
29203;DHT22;16245;51.170;4.884;2022-10-31T14:34:57;19.50;99.90
29203;DHT22;16245;51.170;4.884;2022-10-31T14:43:31;19.40;99.90
29203;DHT22;16245;51.170;4.884;2022-10-31T14:46:16;19.50;99.90
29203;DHT22;16245;51.170;4.884;2022-10-31T14:51:47;19.40;99.90
29203;DHT22;16245;51.170;4.884;2022-10-31T14:54:35;19.30;99.90
29203;DHT22;16245;51.170;4.884;2022-10-31T14:57:12;19.20;99.90
29203;DHT22;16245;51.170;4.884;2022-10-31T14:59:45;19.10;99.90
29203;DHT22;16245;51.170;4.884;2022-10-31T15:02:15;19.10;99.90
29203;DHT22;16245;51.170;4.884;2022-10-31T15:04:44;19.10;99.90
29203;DHT22;16245;51.170;4.884;2022-10-31T15:07:16;19.10;99.90
29203;DHT22;16245;51.170;4.884;2022-10-31T15:09:43;19.00;99.90
29203;DHT22;16245;51.170;4.884;2022-10-31T15:14:49;18.90;99.90
29203;DHT22;16245;51.170;4.884;2022-10-31T15:17:15;18.90;99.90
29203;DHT22;16245;51.170;4.884;2022-10-31T15:19:42;18.80;99.90
29203;DHT22;16245;51.170;4.884;2022-10-31T15:22:13;18.70;99.90
29203;DHT22;16245;51.170;4.884;2022-10-31T15:24:39;18.50;99.90
29203;DHT22;16245;51.170;4.884;2022-10-31T15:27:14;18.50;99.90
29203;DHT22;16245;51.170;4.884;2022-10-31T15:29:54;18.50;99.90
29203;DHT22;16245;51.170;4.884;2022-10-31T15:34:49;18.40;99.90
29203;DHT22;16245;51.170;4.884;2022-10-31T15:37:17;18.30;99.90
29203;DHT22;16245;51.170;4.884;2022-10-31T15:39:44;18.20;99.90
29203;DHT22;16245;51.170;4.884;2022-10-31T15:47:36;18.00;99.90
29203;DHT22;16245;51.170;4.884;2022-10-31T15:50:04;18.00;99.90
29203;DHT22;16245;51.170;4.884;2022-10-31T15:52:44;18.00;99.90
29203;DHT22;16245;51.170;4.884;2022-10-31T15:58:14;17.80;99.90
29203;DHT22;16245;51.170;4.884;2022-10-31T16:00:40;17.80;99.90
29203;DHT22;16245;51.170;4.884;2022-10-31T16:03:09;17.70;99.90
29203;DHT22;16245;51.170;4.884;2022-10-31T16:05:51;17.70;99.90
29203;DHT22;16245;51.170;4.884;2022-10-31T16:10:51;17.60;99.90
29203;DHT22;16245;51.170;4.884;2022-10-31T16:13:17;17.60;99.90
29203;DHT22;16245;51.170;4.884;2022-10-31T16:15:57;17.60;99.90
29203;DHT22;16245;51.170;4.884;2022-10-31T16:18:25;17.50;99.90
29203;DHT22;16245;51.170;4.884;2022-10-31T16:20:53;17.40;99.90
29203;DHT22;16245;51.170;4.884;2022-10-31T16:23:24;17.40;99.90
29203;DHT22;16245;51.170;4.884;2022-10-31T16:25:51;17.30;99.90
29203;DHT22;16245;51.170;4.884;2022-10-31T16:28:20;17.20;99.90
29203;DHT22;16245;51.170;4.884;2022-10-31T16:30:48;17.10;99.90
29203;DHT22;16245;51.170;4.884;2022-10-31T16:35:49;17.00;99.90
29203;DHT22;16245;51.170;4.884;2022-10-31T16:38:14;17.00;99.90
29203;DHT22;16245;51.170;4.884;2022-10-31T16:40:40;17.00;99.90
29203;DHT22;16245;51.170;4.884;2022-10-31T16:43:13;16.90;99.90
29203;DHT22;16245;51.170;4.884;2022-10-31T16:45:43;16.80;99.90
29203;DHT22;16245;51.170;4.884;2022-10-31T16:48:15;16.70;99.90
29203;DHT22;16245;51.170;4.884;2022-10-31T16:50:42;16.70;99.90
29203;DHT22;16245;51.170;4.884;2022-10-31T16:53:09;16.60;99.90
29203;DHT22;16245;51.170;4.884;2022-10-31T16:55:42;16.60;99.90
29203;DHT22;16245;51.170;4.884;2022-10-31T16:58:24;16.60;99.90
29203;DHT22;16245;51.170;4.884;2022-10-31T17:00:50;16.60;99.90
29203;DHT22;16245;51.170;4.884;2022-10-31T17:03:17;16.60;99.90
29203;DHT22;16245;51.170;4.884;2022-10-31T17:05:42;16.50;99.90
29203;DHT22;16245;51.170;4.884;2022-10-31T17:08:08;16.40;99.90
29203;DHT22;16245;51.170;4.884;2022-10-31T17:10:34;16.30;99.90
29203;DHT22;16245;51.170;4.884;2022-10-31T17:13:02;16.30;99.90
29203;DHT22;16245;51.170;4.884;2022-10-31T17:15:30;16.20;99.90
29203;DHT22;16245;51.170;4.884;2022-10-31T17:17:57;16.20;99.90
29203;DHT22;16245;51.170;4.884;2022-10-31T17:20:29;16.20;99.90
29203;DHT22;16245;51.170;4.884;2022-10-31T17:22:55;16.20;99.90
29203;DHT22;16245;51.170;4.884;2022-10-31T17:25:23;16.20;99.90
29203;DHT22;16245;51.170;4.884;2022-10-31T17:27:50;16.10;99.90
29203;DHT22;16245;51.170;4.884;2022-10-31T17:30:17;16.10;99.90
29203;DHT22;16245;51.170;4.884;2022-10-31T17:32:43;16.20;99.90
29203;DHT22;16245;51.170;4.884;2022-10-31T17:35:10;16.20;99.90
29203;DHT22;16245;51.170;4.884;2022-10-31T17:37:37;16.40;99.90
29203;DHT22;16245;51.170;4.884;2022-10-31T17:40:03;16.50;99.90
29203;DHT22;16245;51.170;4.884;2022-10-31T17:42:29;16.60;99.90
29203;DHT22;16245;51.170;4.884;2022-10-31T17:44:55;16.70;99.90
29203;DHT22;16245;51.170;4.884;2022-10-31T17:47:21;16.80;99.90
29203;DHT22;16245;51.170;4.884;2022-10-31T17:49:46;16.90;99.90
29203;DHT22;16245;51.170;4.884;2022-10-31T17:52:12;17.00;99.90
29203;DHT22;16245;51.170;4.884;2022-10-31T17:54:38;17.00;99.90
29203;DHT22;16245;51.170;4.884;2022-10-31T17:57:03;17.00;99.90
29203;DHT22;16245;51.170;4.884;2022-10-31T17:59:29;17.10;99.90
29203;DHT22;16245;51.170;4.884;2022-10-31T18:01:58;17.20;99.90
29203;DHT22;16245;51.170;4.884;2022-10-31T18:04:25;17.20;99.90
29203;DHT22;16245;51.170;4.884;2022-10-31T18:06:51;17.20;99.90
29203;DHT22;16245;51.170;4.884;2022-10-31T18:09:17;17.30;99.90
29203;DHT22;16245;51.170;4.884;2022-10-31T18:11:42;17.30;99.90